Time;durP1;ratioP1;P1;durP2;ratioP2;P2;SDS_P1;SDS_P2;PMS_P1;PMS_P2;Temp;Humidity;BMP_temperature;BMP_pressure;BME280_temperature;BME280_humidity;BME280_pressure;Samples;Min_cycle;Max_cycle;Signal;HPM_P1;HPM_P2
2023/03/13 00:01:27;;;;;;;7.28;2.00;;;9.50;89.00;;;;;;5038383;28;20053;-63
2023/03/13 00:03:54;;;;;;;9.68;2.00;;;9.50;89.20;;;;;;5043053;28;20639;-65
2023/03/13 00:06:20;;;;;;;10.55;2.10;;;9.50;89.10;;;;;;5048179;28;20029;-65
2023/03/13 00:08:45;;;;;;;11.73;2.53;;;9.50;89.20;;;;;;5040358;28;20072;-65
2023/03/13 00:11:13;;;;;;;9.75;1.98;;;9.40;89.70;;;;;;5039353;28;20025;-65
2023/03/13 00:13:38;;;;;;;6.57;1.80;;;9.40;89.60;;;;;;5049991;28;20017;-64
2023/03/13 00:16:07;;;;;;;9.35;1.90;;;9.50;89.20;;;;;;5054396;28;20338;-65
2023/03/13 00:18:36;;;;;;;7.65;1.60;;;9.50;89.20;;;;;;5060546;28;20429;-65
2023/03/13 00:21:07;;;;;;;9.85;2.20;;;9.50;89.20;;;;;;5049612;28;20029;-64
2023/03/13 00:23:35;;;;;;;7.00;2.00;;;9.50;89.20;;;;;;5042678;28;20121;-65
2023/03/13 00:26:09;;;;;;;10.30;2.00;;;9.50;89.20;;;;;;5055221;28;20103;-64
2023/03/13 00:28:35;;;;;;;;;;;9.50;89.20;;;;;;5056018;28;20021;-63
2023/03/13 00:31:11;;;;;;;9.90;2.25;;;9.60;89.00;;;;;;5044169;28;19909;-64
2023/03/13 00:33:47;;;;;;;7.63;1.98;;;9.60;89.20;;;;;;5056118;28;20033;-63
2023/03/13 00:36:19;;;;;;;8.30;1.98;;;9.60;89.40;;;;;;5060359;28;20025;-63
2023/03/13 00:38:44;;;;;;;5.50;1.60;;;9.70;89.10;;;;;;5057179;28;20033;-67
2023/03/13 00:41:12;;;;;;;8.50;1.65;;;9.70;89.30;;;;;;5057771;28;20029;-65
2023/03/13 00:43:39;;;;;;;8.43;2.17;;;9.70;89.60;;;;;;5057868;28;20018;-66
2023/03/13 00:46:05;;;;;;;5.47;1.77;;;9.70;89.70;;;;;;5068737;28;20017;-66
2023/03/13 00:48:32;;;;;;;9.68;2.00;;;9.80;89.70;;;;;;5071757;28;20031;-66
2023/03/13 00:50:58;;;;;;;8.05;1.85;;;9.80;89.90;;;;;;5040624;28;20080;-65
2023/03/13 00:53:23;;;;;;;9.65;2.55;;;9.90;90.00;;;;;;5039744;28;20053;-65
2023/03/13 00:55:59;;;;;;;7.97;2.15;;;9.90;90.10;;;;;;5039844;28;20104;-65
2023/03/13 00:58:27;;;;;;;6.03;1.50;;;9.90;90.10;;;;;;5056394;28;20409;-64
2023/03/13 01:00:54;;;;;;;7.43;1.65;;;9.80;90.40;;;;;;5067010;28;20322;-65
2023/03/13 01:03:24;;;;;;;5.88;1.58;;;9.90;90.60;;;;;;5070425;28;20025;-63
2023/03/13 01:06:00;;;;;;;5.93;1.45;;;9.90;90.50;;;;;;5071224;28;20025;-64
2023/03/13 01:08:27;;;;;;;10.98;2.53;;;9.90;90.80;;;;;;5071858;28;20069;-65
2023/03/13 01:11:00;;;;;;;6.55;1.50;;;9.90;90.90;;;;;;5052106;28;20053;-63
2023/03/13 01:13:27;;;;;;;7.28;1.70;;;9.90;91.20;;;;;;5058513;28;20029;-65
2023/03/13 01:15:53;;;;;;;7.00;1.58;;;9.80;91.50;;;;;;5069204;28;20085;-65
2023/03/13 01:18:24;;;;;;;6.55;1.90;;;9.90;91.60;;;;;;5061767;28;20112;-64
2023/03/13 01:20:50;;;;;;;7.75;1.67;;;10.00;91.40;;;;;;5066846;28;20082;-65
2023/03/13 01:23:15;;;;;;;4.45;1.20;;;10.00;91.40;;;;;;5049263;28;20033;-65
2023/03/13 01:25:41;;;;;;;7.55;1.40;;;10.00;91.60;;;;;;5055199;28;20081;-64
2023/03/13 01:28:06;;;;;;;5.65;1.40;;;10.00;91.90;;;;;;5058289;28;20369;-65
2023/03/13 01:30:32;;;;;;;3.80;1.40;;;10.00;91.90;;;;;;5060142;28;20025;-65
2023/03/13 01:32:57;;;;;;;8.48;1.88;;;10.10;91.90;;;;;;5060014;28;20131;-64
2023/03/13 01:35:23;;;;;;;8.05;1.80;;;10.10;91.80;;;;;;5074285;28;20037;-64
2023/03/13 01:37:49;;;;;;;6.70;1.85;;;10.10;91.80;;;;;;5053857;28;20029;-65
2023/03/13 01:40:14;;;;;;;4.45;1.40;;;10.10;92.00;;;;;;5053751;28;20328;-65
2023/03/13 01:42:58;;;;;;;4.82;1.25;;;10.10;92.10;;;;;;5054904;28;20095;-65
2023/03/13 01:46:02;;;;;;;5.75;1.38;;;10.10;92.20;;;;;;5058634;28;20037;-64
2023/03/13 01:48:34;;;;;;;4.77;1.30;;;10.20;92.20;;;;;;5055591;28;20314;-64
2023/03/13 01:51:02;;;;;;;5.82;1.38;;;10.20;92.20;;;;;;5072013;28;20032;-64
2023/03/13 01:53:30;;;;;;;5.45;1.13;;;10.20;92.50;;;;;;5062536;28;20112;-64
2023/03/13 01:55:58;;;;;;;7.07;1.50;;;10.20;92.50;;;;;;5056915;28;20171;-64
2023/03/13 01:58:25;;;;;;;4.53;1.55;;;10.20;92.60;;;;;;5065664;28;20024;-65
2023/03/13 02:00:51;;;;;;;5.32;1.30;;;10.20;92.70;;;;;;5039594;28;20044;-64
2023/03/13 02:03:19;;;;;;;5.15;1.40;;;10.20;92.80;;;;;;5042856;28;20025;-65
2023/03/13 02:05:48;;;;;;;5.28;1.65;;;10.20;93.00;;;;;;5037931;28;20369;-64
2023/03/13 02:08:24;;;;;;;9.52;1.60;;;10.30;93.10;;;;;;5051309;28;20025;-64
2023/03/13 02:11:01;;;;;;;6.40;1.20;;;10.40;92.90;;;;;;5056194;28;20031;-64
2023/03/13 02:13:28;;;;;;;6.13;1.40;;;10.30;93.00;;;;;;5049175;28;20421;-64
2023/03/13 02:15:54;;;;;;;5.70;1.23;;;10.40;93.00;;;;;;5042913;28;20037;-65
2023/03/13 02:18:19;;;;;;;6.07;1.95;;;10.40;93.10;;;;;;5043614;28;20024;-65
2023/03/13 02:20:48;;;;;;;4.82;1.48;;;10.40;93.20;;;;;;5048462;28;20053;-65
2023/03/13 02:23:52;;;;;;;5.43;1.25;;;10.50;93.20;;;;;;5045869;28;20064;-65
2023/03/13 02:26:17;;;;;;;6.05;1.35;;;10.50;93.00;;;;;;5050822;28;20040;-64
2023/03/13 02:28:43;;;;;;;3.85;1.10;;;10.70;92.80;;;;;;5043282;28;20318;-65
2023/03/13 02:31:09;;;;;;;5.55;1.20;;;10.70;92.60;;;;;;5022010;28;20547;-64
2023/03/13 02:33:38;;;;;;;4.63;1.77;;;10.60;92.80;;;;;;5028343;28;20036;-65
2023/03/13 02:36:05;;;;;;;5.22;1.17;;;10.60;92.90;;;;;;5030398;28;20029;-64
2023/03/13 02:38:36;;;;;;;7.05;1.30;;;10.70;93.00;;;;;;5022051;28;20140;-64
2023/03/13 02:41:03;;;;;;;5.30;1.30;;;10.60;93.10;;;;;;5022522;28;20032;-64
2023/03/13 02:43:35;;;;;;;4.57;1.42;;;10.60;93.40;;;;;;5021972;28;20038;-64
2023/03/13 02:46:12;;;;;;;5.90;1.35;;;10.60;93.30;;;;;;5034097;28;20021;-64
2023/03/13 02:48:41;;;;;;;6.22;1.52;;;10.70;93.00;;;;;;5037597;28;20030;-64
2023/03/13 02:51:20;;;;;;;5.32;1.33;;;10.70;93.20;;;;;;5045584;28;20043;-64
2023/03/13 02:53:49;;;;;;;4.93;1.17;;;10.70;93.20;;;;;;5044194;28;20025;-64
2023/03/13 02:56:18;;;;;;;4.15;1.00;;;10.70;92.90;;;;;;5030246;28;20084;-64
2023/03/13 02:58:43;;;;;;;3.70;1.05;;;10.80;92.10;;;;;;5040943;28;20474;-64
2023/03/13 03:01:09;;;;;;;1.92;0.80;;;10.90;92.00;;;;;;5061071;28;20044;-64
2023/03/13 03:03:38;;;;;;;3.05;1.10;;;10.90;91.40;;;;;;5055526;28;20033;-64
2023/03/13 03:06:05;;;;;;;3.22;0.82;;;10.90;90.70;;;;;;5061423;28;20425;-64
2023/03/13 03:08:30;;;;;;;2.95;1.00;;;11.00;90.00;;;;;;5058850;28;20025;-64
2023/03/13 03:10:56;;;;;;;1.33;0.70;;;11.20;88.80;;;;;;5046783;28;20037;-64
2023/03/13 03:13:22;;;;;;;3.28;0.90;;;11.30;88.80;;;;;;5051956;28;20033;-64
2023/03/13 03:15:47;;;;;;;4.78;0.90;;;11.30;88.90;;;;;;5047186;28;20417;-64
2023/03/13 03:18:13;;;;;;;2.60;0.90;;;11.40;89.10;;;;;;5040074;28;20029;-64
2023/03/13 03:20:38;;;;;;;2.50;0.80;;;11.30;89.40;;;;;;5049972;28;20044;-64
2023/03/13 03:23:07;;;;;;;3.15;1.02;;;11.30;89.70;;;;;;5042796;28;20034;-64
2023/03/13 03:25:32;;;;;;;3.35;1.00;;;11.30;90.10;;;;;;5049574;28;20444;-64
2023/03/13 03:27:58;;;;;;;3.35;0.98;;;11.30;90.50;;;;;;5045839;28;20021;-64
2023/03/13 03:30:23;;;;;;;6.07;1.70;;;11.20;91.00;;;;;;5054581;28;20087;-63
2023/03/13 03:32:52;;;;;;;3.72;1.13;;;11.20;91.40;;;;;;5061640;28;20042;-63
2023/03/13 03:35:18;;;;;;;5.10;1.88;;;11.20;91.90;;;;;;5059143;28;20500;-63
2023/03/13 03:37:43;;;;;;;4.30;1.20;;;11.10;92.20;;;;;;5073908;28;20103;-65
2023/03/13 03:40:09;;;;;;;3.40;1.00;;;11.10;92.20;;;;;;5059352;28;20027;-66
2023/03/13 03:42:35;;;;;;;4.82;1.10;;;11.20;92.30;;;;;;5070744;28;20039;-65
2023/03/13 03:45:01;;;;;;;3.28;1.08;;;11.20;92.40;;;;;;5055627;28;20028;-64
2023/03/13 03:47:27;;;;;;;3.17;1.02;;;11.20;92.50;;;;;;5059850;28;20059;-65
2023/03/13 03:49:53;;;;;;;2.10;0.88;;;11.20;92.40;;;;;;5055846;28;20032;-64
2023/03/13 03:52:18;;;;;;;4.63;1.42;;;11.20;92.50;;;;;;5056233;28;20021;-64
2023/03/13 03:54:44;;;;;;;3.95;1.08;;;11.20;92.70;;;;;;5055958;28;20037;-65
2023/03/13 03:57:09;;;;;;;3.08;0.90;;;11.10;92.90;;;;;;5053744;28;20048;-64
2023/03/13 03:59:35;;;;;;;4.45;1.27;;;11.10;93.10;;;;;;5073411;28;20045;-64
2023/03/13 04:02:00;;;;;;;4.65;1.10;;;11.10;93.10;;;;;;5046987;28;20075;-64
2023/03/13 04:04:26;;;;;;;2.92;0.90;;;11.10;93.30;;;;;;5057215;28;20374;-64
2023/03/13 04:06:52;;;;;;;3.45;1.00;;;11.10;93.10;;;;;;5060607;28;20033;-64
2023/03/13 04:09:17;;;;;;;2.15;0.90;;;11.10;93.20;;;;;;5057759;28;20040;-65
2023/03/13 04:11:43;;;;;;;4.90;1.30;;;11.20;92.90;;;;;;5063612;28;20075;-64
2023/03/13 04:14:08;;;;;;;3.92;1.00;;;11.20;92.80;;;;;;5050097;28;20343;-64
2023/03/13 04:16:35;;;;;;;2.45;0.93;;;11.20;92.80;;;;;;5063439;28;20032;-63
2023/03/13 04:19:00;;;;;;;3.53;1.00;;;11.30;92.70;;;;;;5050073;28;21688;-64
2023/03/13 04:21:29;;;;;;;5.32;1.10;;;11.30;92.50;;;;;;5055055;28;20032;-64
2023/03/13 04:23:54;;;;;;;3.88;1.00;;;11.30;92.40;;;;;;5053758;28;20036;-64
2023/03/13 04:26:20;;;;;;;3.90;0.95;;;11.20;92.70;;;;;;5054423;28;20033;-65
2023/03/13 04:28:45;;;;;;;3.63;1.10;;;11.20;92.60;;;;;;5043022;28;20068;-63
2023/03/13 04:31:11;;;;;;;4.68;1.20;;;11.20;92.40;;;;;;5050604;28;20035;-64
2023/03/13 04:33:37;;;;;;;3.35;1.02;;;11.20;92.40;;;;;;5040064;28;20025;-64
2023/03/13 04:36:02;;;;;;;2.78;1.10;;;11.20;92.30;;;;;;5046193;28;20418;-65
2023/03/13 04:38:28;;;;;;;2.53;0.93;;;11.30;92.20;;;;;;5054679;28;20025;-64
2023/03/13 04:40:53;;;;;;;2.83;1.10;;;11.30;91.90;;;;;;5054755;28;20017;-64
2023/03/13 04:43:19;;;;;;;2.65;1.05;;;11.40;92.00;;;;;;5047682;28;20029;-64
2023/03/13 04:45:45;;;;;;;4.75;1.20;;;11.30;92.00;;;;;;5041048;28;20030;-64
2023/03/13 04:48:11;;;;;;;2.80;0.90;;;11.40;91.90;;;;;;5036112;28;20039;-64
2023/03/13 04:50:36;;;;;;;2.60;0.80;;;11.40;91.80;;;;;;5057666;28;20029;-64
2023/03/13 04:53:02;;;;;;;4.72;0.90;;;11.50;91.70;;;;;;5052381;28;20021;-64
2023/03/13 04:55:28;;;;;;;3.55;0.98;;;11.50;91.80;;;;;;5038341;28;20040;-64
2023/03/13 04:57:54;;;;;;;2.15;0.80;;;11.50;92.00;;;;;;5030973;28;20023;-64
2023/03/13 05:00:19;;;;;;;3.17;1.10;;;11.50;92.40;;;;;;5043099;28;20128;-63
2023/03/13 05:02:45;;;;;;;2.30;0.93;;;11.50;92.40;;;;;;5038011;28;20037;-64
2023/03/13 05:05:10;;;;;;;3.78;1.20;;;11.60;92.50;;;;;;5034762;28;20307;-64
2023/03/13 05:07:36;;;;;;;3.85;1.40;;;11.50;92.60;;;;;;5029221;28;20091;-63
2023/03/13 05:10:02;;;;;;;2.22;0.90;;;11.60;92.80;;;;;;5033919;28;20102;-64
2023/03/13 05:12:28;;;;;;;2.17;0.93;;;11.60;92.80;;;;;;5035622;28;20029;-64
2023/03/13 05:14:53;;;;;;;2.83;1.10;;;11.60;93.10;;;;;;5048439;28;20059;-64
2023/03/13 05:17:19;;;;;;;2.22;1.00;;;11.60;93.10;;;;;;5044726;28;20040;-64
2023/03/13 05:19:44;;;;;;;4.80;1.10;;;11.60;93.40;;;;;;5034015;28;20025;-65
2023/03/13 05:22:10;;;;;;;8.52;1.15;;;11.60;93.40;;;;;;5034295;28;20310;-64
2023/03/13 05:24:35;;;;;;;2.25;0.80;;;11.50;93.80;;;;;;5036673;28;20373;-63
2023/03/13 05:27:01;;;;;;;1.63;0.70;;;11.60;93.80;;;;;;5030986;28;20098;-63
2023/03/13 05:29:27;;;;;;;2.10;1.00;;;11.60;93.80;;;;;;5038676;28;20037;-64
2023/03/13 05:31:52;;;;;;;3.47;0.80;;;11.60;93.80;;;;;;5038316;28;20493;-64
2023/03/13 05:34:18;;;;;;;1.70;0.80;;;11.60;93.80;;;;;;5035296;28;20125;-63
2023/03/13 05:36:44;;;;;;;2.92;0.80;;;11.70;93.80;;;;;;5027278;28;20314;-64
2023/03/13 05:39:09;;;;;;;1.38;0.80;;;11.70;94.20;;;;;;5038908;28;20422;-64
2023/03/13 05:41:35;;;;;;;2.38;0.90;;;11.60;94.40;;;;;;5058384;28;20033;-64
2023/03/13 05:44:00;;;;;;;2.78;0.73;;;11.60;94.40;;;;;;5031200;28;20112;-64
2023/03/13 05:46:26;;;;;;;2.65;1.02;;;11.60;94.60;;;;;;5037740;28;20415;-64
2023/03/13 05:48:52;;;;;;;1.65;0.70;;;11.60;94.60;;;;;;5040575;28;20310;-64
2023/03/13 05:51:20;;;;;;;1.90;0.98;;;11.50;94.70;;;;;;5028735;28;20026;-64
2023/03/13 05:53:46;;;;;;;1.90;0.85;;;11.60;94.80;;;;;;5039378;28;20104;-64
2023/03/13 05:56:11;;;;;;;3.25;0.80;;;11.60;94.80;;;;;;5037499;28;20101;-64
2023/03/13 05:58:37;;;;;;;1.70;0.70;;;11.60;94.80;;;;;;5030766;28;20034;-64
2023/03/13 06:01:10;;;;;;;2.03;0.60;;;11.60;94.80;;;;;;5051701;28;20053;-64
2023/03/13 06:03:35;;;;;;;1.60;0.70;;;11.60;95.00;;;;;;5035292;28;20021;-63
2023/03/13 06:06:01;;;;;;;1.00;0.50;;;11.50;95.20;;;;;;5048717;28;20115;-64
2023/03/13 06:08:27;;;;;;;4.72;0.80;;;11.50;95.40;;;;;;5046070;28;20029;-64
2023/03/13 06:10:53;;;;;;;2.05;0.70;;;11.50;95.40;;;;;;5054328;28;20105;-64
2023/03/13 06:13:19;;;;;;;1.65;0.80;;;11.50;95.40;;;;;;5049546;28;20104;-65
2023/03/13 06:15:51;;;;;;;1.80;0.60;;;11.50;95.50;;;;;;5058982;28;20036;-64
2023/03/13 06:18:17;;;;;;;1.30;0.60;;;11.50;95.60;;;;;;5057502;28;20037;-64
2023/03/13 06:20:43;;;;;;;2.00;0.75;;;11.50;95.80;;;;;;5037289;28;20037;-64
2023/03/13 06:23:08;;;;;;;2.78;0.70;;;11.50;95.80;;;;;;5056258;28;20052;-63
2023/03/13 06:25:34;;;;;;;1.30;0.70;;;11.50;95.80;;;;;;5056846;28;20322;-63
2023/03/13 06:27:59;;;;;;;2.05;0.70;;;11.50;95.90;;;;;;5055240;28;20036;-63
2023/03/13 06:30:25;;;;;;;1.23;0.80;;;11.40;96.10;;;;;;5053523;28;20021;-63
2023/03/13 06:32:50;;;;;;;2.45;1.10;;;11.50;96.20;;;;;;5049475;28;20030;-65
2023/03/13 06:35:19;;;;;;;2.85;0.90;;;11.50;96.20;;;;;;5073993;28;20020;-65
2023/03/13 06:37:44;;;;;;;1.73;0.88;;;11.50;96.40;;;;;;5073460;28;20036;-65
2023/03/13 06:40:11;;;;;;;0.90;0.60;;;11.50;96.40;;;;;;5076365;28;20028;-64
2023/03/13 06:42:36;;;;;;;2.50;0.80;;;11.50;96.50;;;;;;5024202;28;20448;-64
2023/03/13 06:45:02;;;;;;;1.60;0.75;;;11.60;96.40;;;;;;5038152;28;20033;-64
2023/03/13 06:47:31;;;;;;;0.88;0.65;;;11.60;96.40;;;;;;5058293;28;20107;-64
2023/03/13 06:49:57;;;;;;;2.05;0.80;;;11.60;96.30;;;;;;5056704;28;20344;-64
2023/03/13 06:52:22;;;;;;;2.42;0.90;;;11.60;96.40;;;;;;5054959;28;20079;-64
2023/03/13 06:54:48;;;;;;;4.20;0.88;;;11.60;96.50;;;;;;5057043;28;20079;-65
2023/03/13 06:57:13;;;;;;;2.75;1.10;;;11.50;96.50;;;;;;5034426;28;20043;-64
2023/03/13 06:59:39;;;;;;;3.55;1.20;;;11.50;96.70;;;;;;5043189;28;20125;-64
2023/03/13 07:02:05;;;;;;;2.33;1.00;;;11.50;96.80;;;;;;5050722;28;21760;-64
2023/03/13 07:04:30;;;;;;;2.10;0.90;;;11.50;96.90;;;;;;5041125;28;20083;-64
2023/03/13 07:06:56;;;;;;;2.83;0.90;;;11.50;96.80;;;;;;5037571;28;20021;-63
2023/03/13 07:09:22;;;;;;;1.73;0.90;;;11.50;96.90;;;;;;5036703;28;20053;-64
2023/03/13 07:11:48;;;;;;;2.60;1.30;;;11.50;96.90;;;;;;5044621;28;20029;-64
2023/03/13 07:14:13;;;;;;;1.88;0.70;;;11.60;97.00;;;;;;5037053;28;20026;-63
2023/03/13 07:16:39;;;;;;;3.10;1.00;;;11.60;96.90;;;;;;5042729;28;20295;-63
2023/03/13 07:19:04;;;;;;;2.55;0.70;;;11.60;96.90;;;;;;5046152;28;20036;-64
2023/03/13 07:21:30;;;;;;;4.75;1.10;;;11.60;96.90;;;;;;5040616;28;20029;-63
2023/03/13 07:23:56;;;;;;;2.60;1.00;;;11.60;97.00;;;;;;5036517;28;20025;-64
2023/03/13 07:26:21;;;;;;;2.35;1.02;;;11.60;97.00;;;;;;5036829;28;20026;-64
2023/03/13 07:28:47;;;;;;;2.38;1.08;;;11.50;97.10;;;;;;5046132;28;20493;-64
2023/03/13 07:31:18;;;;;;;3.25;1.30;;;11.50;97.20;;;;;;5054505;28;20049;-64
2023/03/13 07:33:44;;;;;;;2.38;1.10;;;11.50;97.10;;;;;;5035633;28;20326;-64
2023/03/13 07:36:11;;;;;;;2.13;1.15;;;11.50;97.20;;;;;;5039180;28;20264;-64
2023/03/13 07:38:37;;;;;;;1.85;0.90;;;11.60;97.20;;;;;;5036445;28;20036;-64
2023/03/13 07:41:04;;;;;;;3.03;0.93;;;11.50;97.20;;;;;;5037014;28;20211;-64
2023/03/13 07:43:30;;;;;;;3.67;1.10;;;11.50;97.20;;;;;;5046787;28;20092;-64
2023/03/13 07:45:57;;;;;;;1.80;0.90;;;11.60;97.10;;;;;;5041828;28;20060;-63
2023/03/13 07:48:26;;;;;;;4.43;1.00;;;11.60;97.10;;;;;;5051959;28;20025;-65
2023/03/13 07:50:53;;;;;;;3.63;0.90;;;11.60;97.10;;;;;;5036183;28;20326;-64
2023/03/13 07:53:22;;;;;;;2.42;1.05;;;11.60;97.10;;;;;;5038412;28;20474;-64
2023/03/13 07:55:58;;;;;;;2.00;0.95;;;11.60;97.10;;;;;;5036121;28;20057;-64
2023/03/13 07:58:25;;;;;;;4.10;1.10;;;11.60;97.10;;;;;;5034816;28;20021;-64
2023/03/13 08:00:51;;;;;;;3.10;1.02;;;11.60;97.20;;;;;;5055605;28;20047;-64
2023/03/13 08:03:18;;;;;;;2.95;1.05;;;11.60;97.30;;;;;;5049855;28;20059;-64
2023/03/13 08:05:43;;;;;;;3.25;1.27;;;11.60;97.30;;;;;;5039155;28;20083;-65
2023/03/13 08:08:09;;;;;;;2.95;1.10;;;11.60;97.40;;;;;;5046500;28;20347;-65
2023/03/13 08:10:35;;;;;;;3.80;1.10;;;11.60;97.30;;;;;;5035968;28;20018;-65
2023/03/13 08:13:01;;;;;;;3.05;1.10;;;11.60;97.40;;;;;;5037645;28;20132;-64
2023/03/13 08:15:27;;;;;;;3.15;1.15;;;11.60;97.40;;;;;;5055760;28;20056;-64
2023/03/13 08:17:53;;;;;;;3.67;1.10;;;11.60;97.40;;;;;;5041001;28;20034;-64
2023/03/13 08:20:19;;;;;;;1.60;1.00;;;11.60;97.40;;;;;;5037610;28;20037;-64
2023/03/13 08:22:51;;;;;;;3.17;1.10;;;11.70;97.40;;;;;;5051881;28;20453;-64
2023/03/13 08:25:16;;;;;;;5.50;1.33;;;11.70;97.30;;;;;;5044434;28;20362;-64
2023/03/13 08:27:42;;;;;;;4.60;1.48;;;11.70;97.40;;;;;;5056437;28;20037;-64
2023/03/13 08:30:08;;;;;;;2.90;1.10;;;11.90;97.50;;;;;;5055567;28;20309;-64
2023/03/13 08:32:35;;;;;;;4.43;1.30;;;12.00;97.20;;;;;;5055709;28;20067;-64
2023/03/13 08:35:01;;;;;;;3.65;1.10;;;12.10;97.30;;;;;;5036864;28;20152;-64
2023/03/13 08:37:27;;;;;;;3.63;1.10;;;12.20;97.20;;;;;;5044034;28;20036;-64
2023/03/13 08:39:55;;;;;;;3.38;1.10;;;12.20;97.00;;;;;;5055784;28;20025;-64
2023/03/13 08:42:21;;;;;;;3.08;1.35;;;12.30;97.10;;;;;;5054457;28;20025;-64
2023/03/13 08:44:46;;;;;;;3.78;1.65;;;12.60;96.80;;;;;;5056797;28;20048;-63
2023/03/13 08:47:12;;;;;;;2.03;0.90;;;12.80;96.50;;;;;;5057762;28;20425;-64
2023/03/13 08:49:37;;;;;;;9.20;3.70;;;12.80;96.00;;;;;;5059444;28;20051;-65
2023/03/13 08:52:04;;;;;;;5.95;2.75;;;12.80;95.90;;;;;;5059585;28;20017;-64
2023/03/13 08:54:30;;;;;;;3.40;1.00;;;12.90;95.60;;;;;;5059347;28;20041;-64
2023/03/13 08:56:56;;;;;;;2.88;1.15;;;12.90;95.40;;;;;;5046333;28;20108;-64
2023/03/13 08:59:21;;;;;;;3.13;1.30;;;12.90;95.10;;;;;;5039163;28;20111;-64
2023/03/13 09:01:47;;;;;;;2.63;1.00;;;12.90;95.10;;;;;;5039307;28;20038;-64
2023/03/13 09:04:13;;;;;;;2.58;1.00;;;13.10;95.20;;;;;;5039240;28;20067;-64
2023/03/13 09:06:38;;;;;;;2.67;1.10;;;13.20;94.40;;;;;;5046686;28;20057;-64
2023/03/13 09:09:05;;;;;;;3.20;1.08;;;13.30;94.40;;;;;;5059136;28;20693;-64
2023/03/13 09:11:32;;;;;;;2.08;1.00;;;13.30;94.50;;;;;;5059192;28;20013;-64
2023/03/13 09:13:58;;;;;;;1.80;1.02;;;13.50;93.90;;;;;;5057817;28;20017;-64
2023/03/13 09:16:28;;;;;;;2.33;1.00;;;13.50;93.30;;;;;;5056436;28;20033;-64
2023/03/13 09:18:55;;;;;;;3.63;1.17;;;13.40;93.60;;;;;;5052217;28;20048;-63
2023/03/13 09:21:23;;;;;;;4.20;1.40;;;13.60;93.70;;;;;;5041341;28;20097;-64
2023/03/13 09:23:50;;;;;;;2.83;1.20;;;14.00;93.20;;;;;;5038922;28;20045;-63
2023/03/13 09:26:17;;;;;;;2.80;1.13;;;14.70;91.10;;;;;;5041925;28;20033;-64
2023/03/13 09:28:43;;;;;;;6.75;3.50;;;15.10;89.50;;;;;;5053377;28;20314;-66
2023/03/13 09:31:27;;;;;;;3.22;1.48;;;15.30;89.00;;;;;;5039330;28;20025;-66
2023/03/13 09:33:54;;;;;;;4.15;1.80;;;15.50;87.90;;;;;;5038630;28;20367;-65
2023/03/13 09:36:24;;;;;;;7.13;1.95;;;15.80;87.20;;;;;;5043693;28;20037;-66
2023/03/13 09:38:51;;;;;;;3.75;1.50;;;15.40;88.00;;;;;;5056178;28;20021;-65
2023/03/13 09:41:17;;;;;;;4.95;1.35;;;15.20;88.60;;;;;;5058515;28;20068;-65
2023/03/13 09:43:59;;;;;;;4.78;1.30;;;14.90;89.20;;;;;;5057356;28;20049;-64
2023/03/13 09:47:02;;;;;;;4.35;1.42;;;14.60;89.50;;;;;;5057383;28;20100;-65
2023/03/13 09:49:53;;;;;;;6.32;1.40;;;14.50;90.20;;;;;;5020099;28;20338;-65
2023/03/13 09:52:30;;;;;;;3.60;1.50;;;14.40;90.10;;;;;;5038324;28;20104;-64
2023/03/13 09:55:01;;;;;;;5.13;1.52;;;14.50;90.00;;;;;;5038147;28;20076;-66
2023/03/13 09:57:39;;;;;;;3.97;1.50;;;14.60;89.90;;;;;;5049923;28;20037;-64
2023/03/13 10:00:12;;;;;;;5.10;1.75;;;14.80;89.40;;;;;;5058059;28;20048;-64
2023/03/13 10:02:44;;;;;;;7.97;2.95;;;14.60;88.70;;;;;;5058027;28;20471;-65
2023/03/13 10:05:16;;;;;;;6.50;1.90;;;14.60;89.10;;;;;;5057412;28;20052;-66
2023/03/13 10:07:42;;;;;;;5.80;2.20;;;14.70;88.20;;;;;;5056223;28;20382;-65
2023/03/13 10:10:17;;;;;;;6.32;1.90;;;14.80;87.90;;;;;;5046278;28;20053;-64
2023/03/13 10:12:51;;;;;;;4.57;1.50;;;14.80;87.50;;;;;;5072204;28;20060;-65
2023/03/13 10:15:25;;;;;;;4.60;1.75;;;15.00;86.80;;;;;;5077975;28;20024;-64
2023/03/13 10:17:50;;;;;;;6.55;1.85;;;15.30;86.30;;;;;;5058629;28;20021;-65
2023/03/13 10:20:22;;;;;;;5.47;2.25;;;15.30;86.10;;;;;;5058077;28;20037;-64
2023/03/13 10:22:54;;;;;;;4.40;1.58;;;15.80;86.20;;;;;;5055749;28;20310;-65
2023/03/13 10:25:26;;;;;;;4.80;1.52;;;16.90;83.50;;;;;;5048007;28;20037;-65
2023/03/13 10:27:53;;;;;;;4.35;1.40;;;18.00;80.10;;;;;;5036867;28;20100;-65
2023/03/13 10:30:23;;;;;;;6.03;2.00;;;17.70;79.20;;;;;;5037678;28;20410;-64
2023/03/13 10:32:49;;;;;;;3.67;1.40;;;17.30;80.60;;;;;;5040178;28;20139;-64
2023/03/13 10:35:29;;;;;;;4.30;1.50;;;17.40;79.70;;;;;;5057406;28;20035;-64
2023/03/13 10:38:08;;;;;;;3.78;1.40;;;17.40;80.00;;;;;;5057567;28;20025;-65
2023/03/13 10:40:34;;;;;;;5.10;1.27;;;17.40;80.00;;;;;;5057320;28;20323;-65
2023/03/13 10:43:18;;;;;;;4.68;1.45;;;17.80;79.10;;;;;;5055140;28;20021;-65
2023/03/13 10:45:44;;;;;;;5.03;1.50;;;18.00;79.80;;;;;;5057178;28;20475;-65
2023/03/13 10:48:29;;;;;;;4.65;1.50;;;18.30;78.20;;;;;;5057237;28;20275;-65
2023/03/13 10:50:58;;;;;;;4.20;1.30;;;18.30;77.40;;;;;;5057253;28;20051;-65
2023/03/13 10:53:30;;;;;;;3.60;1.10;;;17.60;79.40;;;;;;5056073;28;20033;-65
2023/03/13 10:56:09;;;;;;;4.57;1.52;;;17.40;79.60;;;;;;5056950;28;20028;-64
2023/03/13 10:58:44;;;;;;;3.10;1.30;;;17.70;80.10;;;;;;5055945;28;20052;-64
2023/03/13 11:01:20;;;;;;;3.30;1.50;;;18.20;78.20;;;;;;5056926;28;20231;-65
2023/03/13 11:03:47;;;;;;;4.10;1.48;;;18.10;78.70;;;;;;5055714;28;20091;-65
2023/03/13 11:06:33;;;;;;;3.53;1.20;;;18.10;78.40;;;;;;5056954;28;20017;-65
2023/03/13 11:09:02;;;;;;;3.08;1.27;;;18.20;78.50;;;;;;5056888;28;20059;-65
2023/03/13 11:11:29;;;;;;;4.90;1.30;;;18.50;77.20;;;;;;5056574;28;20079;-64
2023/03/13 11:14:07;;;;;;;5.78;1.30;;;18.70;77.80;;;;;;5055591;28;20054;-65
2023/03/13 11:16:41;;;;;;;3.53;1.27;;;19.00;75.20;;;;;;5039842;28;20321;-65
2023/03/13 11:19:10;;;;;;;4.72;1.38;;;18.80;76.40;;;;;;5036559;28;20103;-64
2023/03/13 11:22:00;;;;;;;4.25;1.25;;;18.50;76.90;;;;;;5036663;28;20426;-65
2023/03/13 11:24:43;;;;;;;6.82;4.03;;;19.00;76.00;;;;;;5036633;28;20330;-65
2023/03/13 11:27:23;;;;;;;7.37;1.60;;;19.30;74.90;;;;;;5035425;28;20497;-65
2023/03/13 11:30:18;;;;;;;4.72;1.40;;;19.30;74.20;;;;;;5044735;28;20432;-64
2023/03/13 11:32:53;;;;;;;4.22;1.20;;;19.40;74.60;;;;;;5047415;28;20041;-65
2023/03/13 11:35:29;;;;;;;3.92;1.42;;;19.50;74.80;;;;;;5056350;28;20033;-65
2023/03/13 11:37:56;;;;;;;6.50;1.60;;;19.10;75.10;;;;;;5056440;28;20299;-65
2023/03/13 11:40:52;;;;;;;5.32;1.50;;;19.00;76.40;;;;;;5056233;28;20032;-65
2023/03/13 11:43:44;;;;;;;3.85;1.25;;;18.90;76.80;;;;;;5054997;28;20421;-65
2023/03/13 11:46:39;;;;;;;4.22;1.50;;;19.00;75.80;;;;;;5037371;28;20095;-65
2023/03/13 11:49:08;;;;;;;4.32;1.45;;;19.10;75.80;;;;;;5030894;28;20052;-65
2023/03/13 11:51:45;;;;;;;3.92;1.60;;;19.80;74.60;;;;;;5036317;28;20029;-65
2023/03/13 11:54:29;;;;;;;3.75;1.48;;;19.70;73.50;;;;;;5036195;28;20033;-65
2023/03/13 11:56:57;;;;;;;3.00;1.40;;;19.90;71.90;;;;;;5034887;28;20406;-65
2023/03/13 11:59:36;;;;;;;6.18;1.60;;;19.80;71.70;;;;;;5036706;28;20255;-64
2023/03/13 12:02:15;;;;;;;6.70;2.03;;;20.10;72.20;;;;;;5056109;28;20392;-64
2023/03/13 12:04:51;;;;;;;5.30;1.48;;;20.60;70.70;;;;;;5055812;28;20021;-65
2023/03/13 12:07:35;;;;;;;5.88;1.50;;;20.30;70.50;;;;;;5055954;28;20091;-65
2023/03/13 12:10:01;;;;;;;6.85;1.60;;;20.30;70.70;;;;;;5056096;28;20163;-63
2023/03/13 12:12:56;;;;;;;3.85;1.45;;;20.20;70.50;;;;;;5054636;28;20411;-63
2023/03/13 12:15:24;;;;;;;6.07;1.65;;;20.20;69.80;;;;;;5043634;28;20041;-63
2023/03/13 12:18:14;;;;;;;5.05;1.52;;;20.20;69.70;;;;;;5048300;28;20029;-63
2023/03/13 12:21:08;;;;;;;5.00;1.60;;;20.30;70.20;;;;;;5039116;28;20041;-63
2023/03/13 12:23:45;;;;;;;4.85;1.65;;;20.40;69.20;;;;;;5042710;28;20037;-65
2023/03/13 12:26:19;;;;;;;4.28;1.50;;;20.40;67.60;;;;;;5042365;28;20025;-65
2023/03/13 12:29:15;;;;;;;3.53;1.70;;;20.50;68.00;;;;;;5045759;28;20048;-65
2023/03/13 12:31:53;;;;;;;6.13;1.50;;;20.50;67.80;;;;;;5062344;28;20025;-64
2023/03/13 12:34:41;;;;;;;7.10;1.70;;;20.40;67.50;;;;;;5062202;28;20028;-63
2023/03/13 12:37:24;;;;;;;5.57;1.50;;;20.40;67.00;;;;;;5062468;28;20052;-64
2023/03/13 12:39:57;;;;;;;4.15;1.55;;;20.40;67.40;;;;;;5062327;28;20021;-64
2023/03/13 12:42:48;;;;;;;6.03;1.50;;;20.40;67.90;;;;;;5060782;28;20029;-64
2023/03/13 12:45:17;;;;;;;4.25;1.50;;;20.40;65.70;;;;;;5041932;28;20041;-64
2023/03/13 12:48:07;;;;;;;7.38;1.40;;;20.30;66.10;;;;;;5042204;28;20415;-64
2023/03/13 12:50:53;;;;;;;6.18;1.45;;;20.20;66.30;;;;;;5041345;28;20083;-64
2023/03/13 12:53:43;;;;;;;3.90;1.27;;;20.30;66.40;;;;;;5062076;28;20045;-64
2023/03/13 12:56:08;;;;;;;4.72;1.33;;;20.60;65.90;;;;;;5062006;28;20036;-64
2023/03/13 12:58:38;;;;;;;5.13;1.35;;;20.20;65.40;;;;;;5060366;28;20306;-64
2023/03/13 13:01:06;;;;;;;3.90;1.10;;;20.00;65.70;;;;;;5061347;28;20123;-64